Time;durP1;ratioP1;P1;durP2;ratioP2;P2;SDS_P1;SDS_P2;PMS_P1;PMS_P2;Temp;Humidity;BMP_temperature;BMP_pressure;BME280_temperature;BME280_humidity;BME280_pressure;Samples;Min_cycle;Max_cycle;Signal;HPM_P1;HPM_P2
2022/05/10 00:01:03;;;;;;;21.20;9.80;;;;;;;17.90;54.51;101943.38;5116727;28;20038;-62
2022/05/10 00:03:36;;;;;;;15.32;10.13;;;;;;;17.86;54.67;101938.91;5116556;28;20052;-62
2022/05/10 00:06:02;;;;;;;15.45;9.60;;;;;;;17.87;54.65;101935.38;5116686;28;20035;-62
2022/05/10 00:08:28;;;;;;;16.63;9.65;;;;;;;17.87;54.79;101932.72;5115925;28;20066;-62
2022/05/10 00:10:57;;;;;;;21.27;10.60;;;;;;;17.84;54.58;101938.94;5116538;28;20028;-62
2022/05/10 00:13:24;;;;;;;15.45;10.18;;;;;;;17.76;54.84;101928.25;5116446;28;20055;-62
2022/05/10 00:15:50;;;;;;;15.57;10.52;;;;;;;17.77;54.69;101930.06;5116507;28;20019;-62
2022/05/10 00:18:18;;;;;;;22.77;10.57;;;;;;;17.58;55.59;101925.56;5116376;28;20035;-62
2022/05/10 00:20:45;;;;;;;20.45;10.50;;;;;;;17.56;55.59;101927.38;5116175;28;20031;-62
2022/05/10 00:23:10;;;;;;;17.40;10.30;;;;;;;17.53;55.66;101924.69;5116218;28;20063;-61
2022/05/10 00:25:37;;;;;;;18.58;11.07;;;;;;;17.36;56.57;101921.13;5116105;28;20067;-62
2022/05/10 00:28:03;;;;;;;20.10;11.32;;;;;;;17.21;56.82;101916.66;5116160;28;20062;-62
2022/05/10 00:30:28;;;;;;;18.60;11.52;;;;;;;17.16;57.25;101915.78;5116119;28;20066;-62
2022/05/10 00:32:54;;;;;;;19.02;10.98;;;;;;;17.05;57.63;101921.13;5116274;28;20027;-62
2022/05/10 00:35:25;;;;;;;22.75;11.07;;;;;;;17.06;57.82;101922.00;5115817;28;20405;-62
2022/05/10 00:37:53;;;;;;;19.08;10.43;;;;;;;17.14;57.77;101915.78;5097846;28;20031;-62
2022/05/10 00:40:21;;;;;;;15.30;10.50;;;;;;;17.20;57.24;101920.22;5115826;28;20099;-62
2022/05/10 00:42:59;;;;;;;21.33;10.35;;;;;;;17.18;56.92;101920.25;5115809;28;20023;-62
2022/05/10 00:45:55;;;;;;;18.55;10.35;;;;;;;17.21;55.85;101904.19;5115824;28;20023;-62
2022/05/10 00:48:41;;;;;;;19.50;11.00;;;;;;;17.24;56.40;101911.34;5113922;28;20047;-62
2022/05/10 00:51:23;;;;;;;13.60;10.30;;;;;;;17.19;56.22;101906.00;5115695;28;20038;-62
2022/05/10 00:54:25;;;;;;;15.27;10.90;;;;;;;17.24;55.66;101900.66;5115682;28;20035;-62
2022/05/10 00:57:17;;;;;;;15.95;10.85;;;;;;;17.19;56.05;101906.00;5013108;28;20435;-62
2022/05/10 00:59:50;;;;;;;14.82;10.02;;;;;;;16.92;57.91;101897.97;5013138;28;20038;-62
2022/05/10 01:02:29;;;;;;;17.42;10.70;;;;;;;16.68;58.66;101902.31;5013000;28;20491;-62
2022/05/10 01:04:57;;;;;;;21.00;11.15;;;;;;;16.51;59.32;101896.03;5012985;28;20065;-62
2022/05/10 01:07:36;;;;;;;18.48;11.82;;;;;;;16.40;59.62;101890.69;5012968;28;20042;-62
2022/05/10 01:10:07;;;;;;;18.40;11.77;;;;;;;16.35;59.95;101889.75;5012921;28;20033;-62
2022/05/10 01:12:41;;;;;;;17.03;11.30;;;;;;;16.39;59.57;101894.22;5012987;28;20045;-62
2022/05/10 01:15:14;;;;;;;17.25;10.98;;;;;;;16.35;59.81;101894.22;5012564;28;20912;-62
2022/05/10 01:17:40;;;;;;;20.92;11.73;;;;;;;16.48;59.46;101885.34;5012783;28;20183;-63
2022/05/10 01:20:08;;;;;;;16.90;11.35;;;;;;;16.52;59.34;101882.69;5012171;28;20487;-62
2022/05/10 01:22:36;;;;;;;15.80;11.20;;;;;;;16.47;59.70;101887.13;5012107;28;20100;-62
2022/05/10 01:25:26;;;;;;;19.38;11.73;;;;;;;16.42;59.82;101880.00;5012682;28;20083;-62
2022/05/10 01:28:03;;;;;;;13.85;11.52;;;;;;;16.36;59.97;101880.91;5012513;28;20042;-63
2022/05/10 01:30:31;;;;;;;18.17;10.85;;;;;;;16.29;60.25;101879.09;5012551;28;20065;-62
2022/05/10 01:35:46;;;;;;;22.63;12.88;;;;;;;16.01;61.59;101862.94;5094578;28;20073;-62
2022/05/10 01:38:26;;;;;;;17.13;11.60;;;;;;;15.96;60.84;101872.69;5094234;28;20028;-63
2022/05/10 01:40:56;;;;;;;18.80;11.85;;;;;;;15.88;61.56;101871.78;5094335;28;20769;-62
2022/05/10 01:43:38;;;;;;;19.48;12.10;;;;;;;15.88;61.59;101865.56;5094557;28;20415;-62
2022/05/10 01:46:11;;;;;;;20.15;11.70;;;;;;;15.93;61.42;101861.13;5094301;28;20024;-62
2022/05/10 01:48:39;;;;;;;19.98;12.13;;;;;;;15.95;61.38;101857.59;5094293;28;20078;-62
2022/05/10 01:51:16;;;;;;;16.40;11.60;;;;;;;15.98;60.97;101848.75;5094054;28;20030;-62
2022/05/10 01:53:42;;;;;;;19.50;12.52;;;;;;;15.86;61.43;101841.56;5094205;28;20977;-62
2022/05/10 01:56:13;;;;;;;16.00;11.55;;;;;;;15.92;61.28;101844.25;5099193;28;20082;-62
2022/05/10 01:58:41;;;;;;;17.63;12.32;;;;;;;16.01;61.10;101846.94;5114474;28;20027;-62
2022/05/10 02:01:10;;;;;;;18.58;12.13;;;;;;;16.11;60.97;101842.56;5114625;28;20020;-62
2022/05/10 02:03:48;;;;;;;17.52;11.73;;;;;;;16.23;60.08;101842.63;5114115;28;20027;-62
2022/05/10 02:06:49;;;;;;;16.77;11.93;;;;;;;16.27;59.53;101841.75;5114284;28;20073;-62
2022/05/10 02:09:23;;;;;;;17.85;11.95;;;;;;;16.14;60.15;101839.91;5114132;28;20036;-62
2022/05/10 02:11:58;;;;;;;22.42;12.07;;;;;;;16.11;60.69;101834.56;5114149;28;20098;-62
2022/05/10 02:14:32;;;;;;;15.68;11.57;;;;;;;15.90;61.04;101831.81;5114127;28;20058;-62
2022/05/10 02:17:13;;;;;;;20.95;12.43;;;;;;;15.72;61.40;101836.16;5114122;28;20469;-62
2022/05/10 02:19:48;;;;;;;16.20;11.63;;;;;;;15.63;61.85;101820.09;5114079;28;20027;-62
2022/05/10 02:22:28;;;;;;;20.58;11.95;;;;;;;15.63;61.65;101829.84;5113840;28;20027;-63
2022/05/10 02:25:03;;;;;;;17.35;12.23;;;;;;;15.58;62.35;101832.47;5113935;28;20019;-62
2022/05/10 02:27:38;;;;;;;16.13;11.90;;;;;;;15.49;62.78;101820.00;5113972;28;20465;-62
2022/05/10 02:30:07;;;;;;;16.88;11.80;;;;;;;15.43;63.60;101817.31;5113968;28;20031;-62
2022/05/10 02:33:06;;;;;;;19.48;11.88;;;;;;;15.35;63.64;101816.38;5113433;28;20035;-62
2022/05/10 02:35:42;;;;;;;20.88;12.00;;;;;;;15.34;63.32;101814.59;5113914;28;20384;-62
2022/05/10 02:38:13;;;;;;;17.38;11.85;;;;;;;15.37;63.58;101811.03;5113817;28;20034;-62
2022/05/10 02:40:41;;;;;;;18.50;13.00;;;;;;;15.36;63.72;101803.94;5113676;28;20035;-62
2022/05/10 02:43:10;;;;;;;18.25;12.77;;;;;;;15.40;63.75;101800.41;5113692;28;20034;-62
2022/05/10 02:45:36;;;;;;;18.23;13.20;;;;;;;15.30;64.22;101804.81;5113636;28;20472;-62
2022/05/10 02:48:02;;;;;;;17.52;12.63;;;;;;;15.28;64.35;101806.53;5113684;28;20115;-62
2022/05/10 02:50:33;;;;;;;21.33;13.25;;;;;;;15.16;64.71;101801.13;5113705;28;20103;-62
2022/05/10 02:53:00;;;;;;;17.70;13.23;;;;;;;15.15;64.96;101797.56;5113685;28;20043;-62
2022/05/10 02:55:54;;;;;;;21.50;12.60;;;;;;;15.14;64.53;101797.59;5113664;28;20031;-62
2022/05/10 02:58:42;;;;;;;20.30;13.25;;;;;;;15.02;65.03;101793.03;5113913;28;20061;-62
2022/05/10 03:01:27;;;;;;;22.45;12.90;;;;;;;14.96;66.04;101793.00;5113505;28;20027;-62
2022/05/10 03:03:53;;;;;;;20.52;13.60;;;;;;;14.79;66.51;101787.56;5113568;28;20031;-62
2022/05/10 03:06:25;;;;;;;19.77;13.10;;;;;;;14.83;66.56;101789.38;5113562;28;20426;-62
2022/05/10 03:08:51;;;;;;;20.60;12.90;;;;;;;14.77;66.77;101786.63;5113567;28;20030;-62
2022/05/10 03:11:17;;;;;;;18.92;12.50;;;;;;;14.72;67.05;101789.25;5113729;28;20024;-62
2022/05/10 03:13:44;;;;;;;17.23;12.77;;;;;;;14.75;66.88;101781.31;5113452;28;20533;-62
2022/05/10 03:16:10;;;;;;;18.95;12.63;;;;;;;14.73;67.49;101775.09;5113434;28;20035;-62
2022/05/10 03:18:36;;;;;;;17.48;12.93;;;;;;;14.70;67.18;101775.06;5113383;28;20102;-62
2022/05/10 03:21:02;;;;;;;21.48;13.88;;;;;;;14.71;67.72;101773.28;5113300;28;20444;-63
2022/05/10 03:23:28;;;;;;;18.63;13.15;;;;;;;14.71;67.66;101781.28;5113433;28;20038;-62
2022/05/10 03:25:59;;;;;;;16.63;13.07;;;;;;;14.78;66.80;101773.38;5113516;28;20035;-62
2022/05/10 03:28:26;;;;;;;19.83;13.13;;;;;;;14.87;66.78;101769.88;5113479;28;20027;-62
2022/05/10 03:30:51;;;;;;;19.08;12.68;;;;;;;14.98;66.47;101768.19;5113293;28;20769;-62
2022/05/10 03:33:17;;;;;;;20.17;13.57;;;;;;;15.17;65.84;101769.22;5113273;28;20023;-62
2022/05/10 03:35:43;;;;;;;20.67;12.90;;;;;;;15.26;65.64;101761.28;5113122;28;20032;-63
2022/05/10 03:38:08;;;;;;;22.95;12.93;;;;;;;15.32;65.17;101749.75;5113157;28;20077;-62
2022/05/10 03:40:34;;;;;;;16.67;12.05;;;;;;;15.42;64.90;101756.06;5113182;28;20053;-62
2022/05/10 03:43:00;;;;;;;18.13;13.38;;;;;;;15.38;64.97;101757.81;5113164;28;20016;-62
2022/05/10 03:45:27;;;;;;;20.38;13.52;;;;;;;15.42;64.89;101750.72;5116377;28;20388;-62
2022/05/10 03:47:54;;;;;;;19.00;13.60;;;;;;;15.44;64.70;101751.63;5117225;28;20030;-62
2022/05/10 03:50:21;;;;;;;21.77;13.25;;;;;;;15.50;64.93;101755.22;5116954;28;20037;-62
2022/05/10 03:52:47;;;;;;;17.45;12.73;;;;;;;15.50;64.33;101752.53;5116758;28;20027;-62
2022/05/10 03:55:15;;;;;;;22.10;12.70;;;;;;;15.57;64.32;101749.91;5116948;28;20024;-62
2022/05/10 03:57:41;;;;;;;18.02;12.85;;;;;;;15.60;64.03;101747.25;5116812;28;20044;-63
2022/05/10 04:00:11;;;;;;;19.55;13.35;;;;;;;15.53;64.43;101744.56;5116686;28;20031;-62
2022/05/10 04:02:36;;;;;;;22.58;13.05;;;;;;;15.57;64.81;101747.22;5097946;28;20024;-62
2022/05/10 04:05:02;;;;;;;21.15;12.88;;;;;;;15.55;64.61;101746.34;5116049;28;20023;-62
2022/05/10 04:07:28;;;;;;;20.40;12.90;;;;;;;15.55;64.42;101749.91;5116123;28;20404;-62
2022/05/10 04:09:53;;;;;;;18.67;13.18;;;;;;;15.63;64.33;101742.84;5115967;28;20015;-62
2022/05/10 04:12:19;;;;;;;20.40;13.02;;;;;;;15.65;64.25;101748.19;5116049;28;20028;-62
2022/05/10 04:14:44;;;;;;;17.45;13.30;;;;;;;15.72;64.26;101750.00;5116139;28;20035;-62
2022/05/10 04:17:09;;;;;;;22.85;13.25;;;;;;;15.71;64.47;101745.53;5115888;28;20031;-62
2022/05/10 04:19:35;;;;;;;18.48;12.02;;;;;;;15.84;63.50;101744.69;5115878;28;20038;-62
2022/05/10 04:22:00;;;;;;;19.05;12.77;;;;;;;15.83;63.64;101745.59;5115735;28;20028;-63
2022/05/10 04:24:25;;;;;;;18.73;12.57;;;;;;;15.85;63.68;101740.28;5115689;28;20027;-62
2022/05/10 04:26:51;;;;;;;20.40;13.80;;;;;;;15.87;63.83;101747.38;5115770;28;20061;-62
2022/05/10 04:29:17;;;;;;;18.17;13.23;;;;;;;15.90;63.51;101750.06;5115600;28;20024;-62
2022/05/10 04:31:42;;;;;;;19.75;12.93;;;;;;;15.96;63.77;101747.41;5115557;28;20457;-62
2022/05/10 04:34:07;;;;;;;24.50;13.38;;;;;;;15.93;63.51;101742.09;5115584;28;20035;-62
2022/05/10 04:36:33;;;;;;;20.05;13.60;;;;;;;15.91;63.19;101735.84;5115540;28;20092;-62
2022/05/10 04:38:59;;;;;;;19.90;14.80;;;;;;;15.95;63.04;101737.66;5115131;28;20413;-62
2022/05/10 04:41:28;;;;;;;23.25;14.32;;;;;;;16.03;62.88;101735.88;5115699;28;20034;-62
2022/05/10 04:43:55;;;;;;;23.70;14.45;;;;;;;16.14;62.31;101740.34;5115133;28;20058;-62
2022/05/10 04:46:21;;;;;;;22.67;14.95;;;;;;;16.14;62.43;101743.91;5115336;28;20070;-62
2022/05/10 04:48:46;;;;;;;23.98;14.80;;;;;;;16.21;61.76;101734.16;5115180;28;20417;-61
2022/05/10 04:51:12;;;;;;;21.35;14.93;;;;;;;16.18;62.66;101729.69;5115451;28;20380;-62
2022/05/10 04:53:37;;;;;;;26.23;14.90;;;;;;;16.24;61.92;101720.81;5114843;28;20396;-62
2022/05/10 04:56:03;;;;;;;25.92;15.10;;;;;;;16.22;62.09;101726.13;5114974;28;20051;-62
2022/05/10 04:58:29;;;;;;;24.60;15.55;;;;;;;16.14;62.50;101724.34;5114987;28;20040;-62
2022/05/10 05:01:00;;;;;;;25.52;14.80;;;;;;;16.17;62.56;101730.59;5114904;28;20028;-62
2022/05/10 05:03:25;;;;;;;23.50;14.85;;;;;;;16.25;61.97;101731.50;5114870;28;20016;-62
2022/05/10 05:05:51;;;;;;;23.30;15.18;;;;;;;16.33;62.02;101728.84;5114749;28;20046;-62
2022/05/10 05:08:18;;;;;;;22.40;14.38;;;;;;;16.41;61.39;101721.72;5114722;28;20030;-62
2022/05/10 05:10:43;;;;;;;25.42;14.55;;;;;;;16.40;61.56;101724.38;5114650;28;20456;-62
2022/05/10 05:13:09;;;;;;;26.58;14.77;;;;;;;16.50;61.24;101734.19;5114839;28;20030;-62
2022/05/10 05:15:34;;;;;;;22.83;14.65;;;;;;;16.47;61.62;101735.06;5114618;28;20025;-62
2022/05/10 05:18:03;;;;;;;25.40;15.35;;;;;;;16.41;61.28;101731.53;5114727;28;20545;-62
2022/05/10 05:20:28;;;;;;;27.58;14.63;;;;;;;16.37;62.44;101740.41;5114590;28;20039;-62
2022/05/10 05:22:54;;;;;;;25.95;14.55;;;;;;;16.31;62.23;101737.72;5114289;28;20024;-63
2022/05/10 05:25:19;;;;;;;27.58;14.88;;;;;;;16.33;62.83;101739.50;5114407;28;20099;-62
2022/05/10 05:27:45;;;;;;;23.33;14.10;;;;;;;16.39;62.68;101741.28;5114450;28;20020;-62
2022/05/10 05:30:11;;;;;;;24.67;14.80;;;;;;;16.43;62.38;101735.94;5114458;28;20023;-62
2022/05/10 05:32:36;;;;;;;20.23;15.13;;;;;;;16.51;61.61;101735.97;5114371;28;20023;-62
2022/05/10 05:35:03;;;;;;;27.40;15.07;;;;;;;16.65;62.08;101736.84;5114385;28;20492;-62
2022/05/10 05:37:34;;;;;;;23.67;15.05;;;;;;;16.58;62.24;101735.09;5114434;28;20016;-62
2022/05/10 05:40:13;;;;;;;23.60;14.63;;;;;;;16.57;62.08;101730.63;5114268;28;20107;-62
2022/05/10 05:42:39;;;;;;;24.02;14.25;;;;;;;16.64;61.48;101729.72;5114251;28;20024;-62
2022/05/10 05:45:07;;;;;;;19.17;13.40;;;;;;;16.71;61.68;101730.63;5114338;28;20102;-62
2022/05/10 05:47:33;;;;;;;27.73;14.60;;;;;;;16.75;61.61;101733.34;5114041;28;20028;-62
2022/05/10 05:49:59;;;;;;;25.52;13.63;;;;;;;16.73;62.72;101726.22;5114292;28;20026;-62
2022/05/10 05:52:25;;;;;;;21.98;14.23;;;;;;;16.85;61.98;101726.19;5113902;28;20388;-63
2022/05/10 05:54:52;;;;;;;19.23;13.35;;;;;;;16.96;61.64;101731.53;5113821;28;20051;-62
2022/05/10 05:57:18;;;;;;;20.42;13.18;;;;;;;17.07;61.30;101721.72;5113851;28;20075;-62
2022/05/10 05:59:43;;;;;;;24.17;13.68;;;;;;;17.10;61.73;101723.50;5114106;28;20459;-62
2022/05/10 06:02:15;;;;;;;16.67;12.80;;;;;;;17.22;61.06;101723.47;5113937;28;20437;-62
2022/05/10 06:04:40;;;;;;;20.10;13.38;;;;;;;17.31;61.20;101719.91;5095421;28;20027;-62
2022/05/10 06:07:06;;;;;;;19.20;13.23;;;;;;;17.36;61.33;101704.72;5113034;28;20015;-62
2022/05/10 06:09:31;;;;;;;17.48;12.80;;;;;;;17.41;61.66;101705.59;5113575;28;20437;-62
2022/05/10 06:11:57;;;;;;;18.08;12.55;;;;;;;17.50;62.16;101706.44;5113717;28;20019;-62
2022/05/10 06:14:22;;;;;;;20.25;12.20;;;;;;;17.52;60.91;101719.81;5113745;28;20111;-62
2022/05/10 06:16:47;;;;;;;24.88;11.95;;;;;;;17.58;60.59;101711.75;5113505;28;20412;-62
2022/05/10 06:19:13;;;;;;;15.88;11.05;;;;;;;17.64;60.93;101711.72;5095390;28;20058;-62
2022/05/10 06:21:43;;;;;;;18.52;10.45;;;;;;;17.75;59.88;101715.28;5113380;28;20480;-62
2022/05/10 06:24:10;;;;;;;16.13;9.88;;;;;;;17.86;59.68;101712.56;5113326;28;20031;-62
2022/05/10 06:26:36;;;;;;;14.52;9.88;;;;;;;18.00;59.73;101716.03;5113516;28;20028;-62
2022/05/10 06:29:01;;;;;;;18.60;10.18;;;;;;;18.12;58.59;101714.19;5113376;28;20035;-62
2022/05/10 06:31:27;;;;;;;16.20;9.23;;;;;;;18.22;58.72;101700.72;5113223;28;20031;-62
2022/05/10 06:33:52;;;;;;;17.35;9.55;;;;;;;18.33;58.92;101708.69;5113270;28;20035;-62
2022/05/10 06:36:18;;;;;;;12.95;9.18;;;;;;;18.41;58.81;101701.47;5113317;28;20051;-62
2022/05/10 06:38:43;;;;;;;14.07;8.82;;;;;;;18.53;58.11;101700.47;5113083;28;20110;-62
2022/05/10 06:41:08;;;;;;;14.65;8.55;;;;;;;18.63;57.67;101698.59;5113225;28;20019;-62
2022/05/10 06:43:38;;;;;;;18.33;8.70;;;;;;;18.69;56.98;101699.50;5113005;28;20023;-62
2022/05/10 06:46:18;;;;;;;14.73;8.60;;;;;;;18.75;56.88;101702.09;5113109;28;20085;-62
2022/05/10 06:48:47;;;;;;;13.07;8.07;;;;;;;18.88;57.13;101689.47;5113171;28;20063;-62
2022/05/10 06:51:15;;;;;;;12.10;7.65;;;;;;;18.93;56.20;101689.47;5113035;28;20031;-63
2022/05/10 06:53:40;;;;;;;14.10;7.70;;;;;;;19.00;55.70;101686.66;5112893;28;20031;-62
2022/05/10 06:56:07;;;;;;;13.00;7.40;;;;;;;19.11;55.77;101685.69;5112928;28;20043;-64
2022/05/10 06:58:33;;;;;;;16.83;9.30;;;;;;;19.19;55.65;101692.75;5112957;28;20019;-62
2022/05/10 07:00:58;;;;;;;16.55;8.73;;;;;;;19.26;55.56;101685.50;5112956;28;20027;-62
2022/05/10 07:03:31;;;;;;;12.77;7.50;;;;;;;19.30;54.55;101694.41;5112807;28;20073;-62
2022/05/10 07:05:58;;;;;;;12.63;7.32;;;;;;;19.35;54.37;101679.13;5112943;28;20020;-63
2022/05/10 07:08:23;;;;;;;16.23;7.40;;;;;;;19.41;54.58;101689.81;5113699;28;20080;-62
2022/05/10 07:10:49;;;;;;;13.32;7.55;;;;;;;19.45;54.16;101684.38;5114189;28;20020;-62
2022/05/10 07:13:20;;;;;;;11.48;7.22;;;;;;;19.55;53.96;101681.59;5114087;28;20104;-62
2022/05/10 07:15:45;;;;;;;12.85;7.63;;;;;;;19.64;54.02;101682.38;5113196;28;20103;-62
2022/05/10 07:18:11;;;;;;;14.35;7.50;;;;;;;19.84;53.76;101678.53;5112919;28;20075;-62
2022/05/10 07:20:37;;;;;;;15.23;7.63;;;;;;;20.04;53.98;101676.44;5116270;28;20024;-62
2022/05/10 07:23:02;;;;;;;12.85;7.47;;;;;;;20.20;53.61;101675.28;5116810;28;20085;-62
2022/05/10 07:25:28;;;;;;;11.05;7.15;;;;;;;20.32;52.60;101667.97;5116843;28;20047;-62
2022/05/10 07:27:55;;;;;;;11.32;6.80;;;;;;;20.33;52.32;101673.28;5117103;28;20092;-62
2022/05/10 07:30:22;;;;;;;10.85;6.85;;;;;;;20.42;51.86;101672.25;5116662;28;20020;-62
2022/05/10 07:32:48;;;;;;;11.07;6.90;;;;;;;20.63;51.68;101662.97;5116842;28;20492;-62
2022/05/10 07:35:14;;;;;;;13.95;7.20;;;;;;;20.75;50.45;101668.13;5116679;28;20246;-63
2022/05/10 07:37:39;;;;;;;14.77;6.72;;;;;;;20.99;50.87;101669.50;5116503;28;20616;-62
2022/05/10 07:40:07;;;;;;;14.25;6.90;;;;;;;21.15;50.17;101667.38;5116579;28;20129;-62
2022/05/10 07:42:34;;;;;;;13.40;6.70;;;;;;;21.19;49.08;101678.00;5116503;28;20028;-62
2022/05/10 07:44:59;;;;;;;13.98;6.88;;;;;;;21.17;49.58;101661.06;5098195;28;20035;-62
2022/05/10 07:47:25;;;;;;;11.50;6.75;;;;;;;21.17;49.91;101660.16;5116458;28;20365;-62
2022/05/10 07:49:50;;;;;;;11.82;6.78;;;;;;;21.17;49.01;101658.38;5116599;28;20019;-63
2022/05/10 07:52:15;;;;;;;11.05;6.30;;;;;;;21.24;49.30;101657.34;5116224;28;20147;-62
2022/05/10 07:54:41;;;;;;;15.30;6.47;;;;;;;21.39;49.19;101649.88;5116276;28;20115;-62
2022/05/10 07:57:06;;;;;;;8.93;6.25;;;;;;;21.61;49.39;101656.56;5115967;28;20055;-62
2022/05/10 07:59:31;;;;;;;13.32;5.97;;;;;;;21.71;48.33;101646.47;5116258;28;20103;-62
2022/05/10 08:01:58;;;;;;;11.05;6.10;;;;;;;21.77;47.96;101656.22;5116393;28;20027;-62
2022/05/10 08:04:23;;;;;;;8.82;5.57;;;;;;;21.80;47.68;101654.38;5116037;28;20377;-62
2022/05/10 08:06:49;;;;;;;10.57;5.65;;;;;;;21.83;48.71;101640.81;5097770;28;20020;-62
2022/05/10 08:09:14;;;;;;;14.18;5.95;;;;;;;21.93;47.78;101650.47;5116161;28;20558;-62
2022/05/10 08:11:41;;;;;;;14.77;6.18;;;;;;;21.97;46.92;101645.91;5116216;28;20460;-62
2022/05/10 08:14:06;;;;;;;10.32;5.82;;;;;;;21.97;47.50;101653.97;5115931;28;20473;-62
2022/05/10 08:16:32;;;;;;;12.18;5.97;;;;;;;21.93;47.63;101650.47;5116154;28;20026;-62
2022/05/10 08:18:58;;;;;;;14.93;5.53;;;;;;;22.19;47.33;101651.69;5115833;28;20461;-62
2022/05/10 08:21:24;;;;;;;9.63;5.60;;;;;;;22.39;47.00;101648.47;5115945;28;20024;-63
2022/05/10 08:23:52;;;;;;;8.90;6.20;;;;;;;22.40;46.64;101648.44;5115712;28;20032;-63
2022/05/10 08:26:19;;;;;;;11.30;5.90;;;;;;;22.39;46.18;101643.09;5115791;28;20027;-62
2022/05/10 08:28:45;;;;;;;11.07;5.25;;;;;;;22.42;45.88;101640.31;5115817;28;20102;-62
2022/05/10 08:31:10;;;;;;;13.38;5.88;;;;;;;22.53;45.92;101635.56;5115017;28;20485;-62
2022/05/10 08:33:38;;;;;;;12.13;5.88;;;;;;;22.59;45.97;101639.88;5115499;28;20388;-62
2022/05/10 08:36:04;;;;;;;10.93;5.90;;;;;;;22.51;45.42;101634.69;5115490;28;20552;-63
2022/05/10 08:38:30;;;;;;;13.35;5.85;;;;;;;22.44;46.00;101633.06;5115484;28;20098;-62
2022/05/10 08:41:08;;;;;;;9.95;5.13;;;;;;;22.47;44.47;101630.31;5115292;28;20100;-62
2022/05/10 08:43:40;;;;;;;14.52;5.90;;;;;;;22.37;45.55;101631.47;5115265;28;20042;-62
2022/05/10 08:46:10;;;;;;;14.23;5.85;;;;;;;22.32;46.32;101631.59;5115524;28;20032;-62
2022/05/10 08:48:35;;;;;;;16.65;5.20;;;;;;;22.31;44.41;101620.84;5115326;28;20016;-62
2022/05/10 08:51:04;;;;;;;11.90;5.28;;;;;;;22.27;46.04;101630.84;5115300;28;20326;-62
2022/05/10 08:53:30;;;;;;;11.73;5.13;;;;;;;22.19;44.88;101630.16;5115115;28;20028;-62
2022/05/10 08:56:01;;;;;;;12.48;5.25;;;;;;;22.19;46.08;101622.06;5114988;28;20047;-62
2022/05/10 08:58:42;;;;;;;14.68;5.32;;;;;;;22.23;45.94;101621.06;5115337;28;20111;-62
2022/05/10 09:01:12;;;;;;;16.73;5.15;;;;;;;22.17;44.29;101629.28;5114924;28;20043;-62
2022/05/10 09:04:16;;;;;;;13.85;5.75;;;;;;;22.28;45.04;101619.13;5114656;28;20076;-62
2022/05/10 09:06:59;;;;;;;14.90;5.88;;;;;;;22.49;45.59;101613.19;5114867;28;20024;-62
2022/05/10 09:09:28;;;;;;;12.40;5.70;;;;;;;22.80;45.26;101611.47;5114937;28;20077;-62
2022/05/10 09:12:17;;;;;;;10.40;5.38;;;;;;;23.10;43.14;101612.44;5114764;28;20028;-63
2022/05/10 09:15:03;;;;;;;14.35;5.18;;;;;;;23.37;42.26;101616.13;5114794;28;20024;-62
2022/05/10 09:17:32;;;;;;;12.23;5.47;;;;;;;23.51;41.81;101619.31;5114684;28;20107;-62
2022/05/10 09:19:58;;;;;;;13.18;5.00;;;;;;;23.74;41.08;101603.31;5114725;28;20098;-62
2022/05/10 09:22:42;;;;;;;13.77;5.00;;;;;;;23.89;41.01;101610.00;5114497;28;20023;-62
2022/05/10 09:25:28;;;;;;;18.05;5.32;;;;;;;24.15;41.84;101594.75;5114435;28;20374;-62
2022/05/10 09:27:54;;;;;;;9.80;5.32;;;;;;;24.36;40.33;101599.44;5114512;28;20130;-62
2022/05/10 09:30:34;;;;;;;11.48;5.63;;;;;;;24.24;41.12;101589.06;5114523;28;20107;-62
2022/05/10 09:36:01;;;;;;;10.35;5.18;;;;;;;24.13;40.93;101591.25;5114424;28;20034;-62
2022/05/10 09:38:27;;;;;;;13.73;5.35;;;;;;;24.37;40.29;101595.84;5114429;28;20015;-63
2022/05/10 09:40:52;;;;;;;11.35;5.07;;;;;;;24.47;39.90;101596.41;5114012;28;20028;-62
2022/05/10 09:43:25;;;;;;;15.07;4.90;;;;;;;24.60;38.76;101595.03;5113332;28;20110;-63
2022/05/10 09:46:22;;;;;;;11.80;5.15;;;;;;;24.67;39.95;101595.72;5114396;28;20049;-63
2022/05/10 09:48:48;;;;;;;11.63;4.72;;;;;;;24.69;39.34;101593.81;5113254;28;20057;-62
2022/05/10 09:51:24;;;;;;;13.40;5.47;;;;;;;24.69;40.45;101585.72;5114061;28;20478;-62
2022/05/10 09:53:52;;;;;;;11.07;5.25;;;;;;;24.63;39.85;101588.66;5113851;28;20042;-63
2022/05/10 09:56:23;;;;;;;10.68;5.25;;;;;;;24.65;40.40;101597.56;5113754;28;20051;-63
2022/05/10 09:59:11;;;;;;;15.15;5.20;;;;;;;24.86;40.22;101587.78;5113939;28;20031;-62
2022/05/10 10:01:46;;;;;;;14.00;5.45;;;;;;;24.90;40.18;101589.44;5031040;28;20045;-62
2022/05/10 10:04:24;;;;;;;9.82;4.72;;;;;;;25.07;39.37;101583.41;5031265;28;20040;-62
2022/05/10 10:07:06;;;;;;;12.32;5.50;;;;;;;25.15;39.63;101571.41;5031169;28;20051;-63
2022/05/10 10:09:41;;;;;;;16.83;5.95;;;;;;;25.26;38.56;101567.38;5031252;28;20034;-63
2022/05/10 10:12:31;;;;;;;13.95;5.55;;;;;;;25.38;38.86;101569.59;5031041;28;20072;-62
2022/05/10 10:14:57;;;;;;;22.85;6.00;;;;;;;25.21;37.88;101572.97;5030945;28;20057;-63
2022/05/10 10:17:27;;;;;;;17.10;5.00;;;;;;;25.18;38.02;101564.97;5030983;28;20447;-62
2022/05/10 10:20:06;;;;;;;10.70;5.03;;;;;;;25.43;38.31;101562.19;5030957;28;20503;-62
2022/05/10 10:22:40;;;;;;;14.27;5.25;;;;;;;25.89;36.99;101563.94;5030907;28;20036;-62
2022/05/10 10:25:20;;;;;;;11.23;4.90;;;;;;;26.16;36.63;101553.75;5030732;28;20033;-62
2022/05/10 10:28:06;;;;;;;13.70;4.88;;;;;;;26.55;36.44;101544.88;5030749;28;20168;-62
2022/05/10 10:30:41;;;;;;;10.63;4.88;;;;;;;27.08;35.31;101554.22;5031866;28;20029;-62
2022/05/10 10:33:23;;;;;;;9.70;5.07;;;;;;;27.09;35.07;101537.88;5032212;28;20572;-63
2022/05/10 10:36:02;;;;;;;10.40;4.70;;;;;;;27.31;34.28;101540.44;5033815;28;20030;-63
2022/05/10 10:38:52;;;;;;;8.48;4.40;;;;;;;27.45;33.55;101546.09;5067907;28;20032;-62
2022/05/10 10:41:29;;;;;;;9.48;4.35;;;;;;;27.68;33.51;101531.38;5113583;28;20051;-62
2022/05/10 10:44:07;;;;;;;14.70;4.85;;;;;;;27.52;32.97;101545.78;5113319;28;20043;-62
2022/05/10 10:46:40;;;;;;;19.08;4.78;;;;;;;27.54;31.96;101536.63;5113123;28;20420;-62
2022/05/10 10:49:49;;;;;;;18.08;4.90;;;;;;;27.45;32.77;101535.25;5113204;28;20024;-63
2022/05/10 10:52:17;;;;;;;12.90;4.80;;;;;;;27.71;31.43;101533.97;5030550;28;20084;-62
2022/05/10 10:54:45;;;;;;;15.60;4.78;;;;;;;27.49;31.62;101549.53;5030093;28;20033;-63
2022/05/10 10:57:32;;;;;;;15.00;4.85;;;;;;;27.10;32.82;101542.34;5030192;28;20052;-62
2022/05/10 11:00:09;;;;;;;12.85;5.00;;;;;;;27.09;33.09;101529.75;5030460;28;20034;-62
2022/05/10 11:02:57;;;;;;;19.02;4.55;;;;;;;27.32;32.73;101523.19;5030442;28;20082;-62
2022/05/10 11:06:01;;;;;;;12.25;4.80;;;;;;;27.33;32.31;101521.41;5030233;28;20037;-63
2022/05/10 11:08:58;;;;;;;15.10;4.82;;;;;;;27.15;32.38;101523.13;4991108;28;20042;-62
2022/05/10 11:11:32;;;;;;;18.45;5.00;;;;;;;27.02;33.18;101514.66;4990966;28;20038;-62
2022/05/10 11:14:20;;;;;;;27.45;5.22;;;;;;;27.38;32.64;101511.19;4991049;28;20054;-63
2022/05/10 11:17:13;;;;;;;17.17;4.90;;;;;;;27.55;32.89;101502.22;4990703;28;20078;-63
2022/05/10 11:19:51;;;;;;;28.27;5.70;;;;;;;27.48;32.52;101501.63;4990974;28;20050;-62
2022/05/10 11:22:22;;;;;;;14.98;4.80;;;;;;;27.32;31.95;101503.31;4990712;28;20039;-63
2022/05/10 11:25:13;;;;;;;9.90;4.95;;;;;;;27.03;32.47;101507.44;4990923;28;20069;-62
2022/05/10 11:27:55;;;;;;;10.48;4.97;;;;;;;26.94;33.18;101500.59;4968553;28;20515;-62
2022/05/10 11:30:30;;;;;;;13.00;4.85;;;;;;;26.98;32.29;101507.66;5046345;28;20343;-63
2022/05/10 11:33:17;;;;;;;13.00;4.97;;;;;;;26.88;32.87;101509.00;5049993;28;20041;-63
2022/05/10 11:36:05;;;;;;;15.30;5.03;;;;;;;26.98;32.99;101504.94;5050120;28;20083;-62
2022/05/10 11:39:15;;;;;;;14.77;4.80;;;;;;;27.22;33.15;101494.75;5063077;28;20039;-62